Alexandria, Ohio
Current Conditions -  °F | °C
As of 8:54 PM on Saturday 25 Oct 2014 (Local Time) from KVTA Reporting Station
Clear Clear  
Wind Chill: 16°   Ceiling: Unl
Heat Index: 16°   Visibility: 10mi
Dew Point:   Wind: 8mph
Humidity: 62%   Direction: 290°WNW
Pressure: 29.84"   Gusts: NA
Location:  40.09°N, 82.61°W
Report Text: KVTA 260054Z AUTO 29007KT 10SM CLR 16/08 A2984 RMK AO2 SLP106 T01560083
Loading
Personal Weather Stations






























Interactive Weather Map New forecast layout! Learn more

10-Day Weather Forecast

Advertisements
Track Severe Weather on mobile